sensor_id;sensor_type;location;lat;lon;timestamp;P1;durP1;ratioP1;P2;durP2;ratioP2
69894;SDS011;57172;52.034;5.090;2024-01-11T00:01:28;20.05;;;8.48;;
69894;SDS011;57172;52.034;5.090;2024-01-11T00:03:55;19.95;;;7.82;;
69894;SDS011;57172;52.034;5.090;2024-01-11T00:06:22;20.42;;;8.02;;
69894;SDS011;57172;52.034;5.090;2024-01-11T00:08:49;20.37;;;8.83;;
69894;SDS011;57172;52.034;5.090;2024-01-11T00:11:16;20.48;;;8.35;;
69894;SDS011;57172;52.034;5.090;2024-01-11T00:13:44;19.25;;;8.57;;
69894;SDS011;57172;52.034;5.090;2024-01-11T00:16:11;19.48;;;8.25;;
69894;SDS011;57172;52.034;5.090;2024-01-11T00:18:37;19.77;;;8.75;;
69894;SDS011;57172;52.034;5.090;2024-01-11T00:21:05;23.33;;;8.37;;
69894;SDS011;57172;52.034;5.090;2024-01-11T00:23:32;20.50;;;8.43;;
69894;SDS011;57172;52.034;5.090;2024-01-11T00:25:58;20.55;;;9.27;;
69894;SDS011;57172;52.034;5.090;2024-01-11T00:28:26;20.67;;;8.45;;
69894;SDS011;57172;52.034;5.090;2024-01-11T00:30:52;20.05;;;8.88;;
69894;SDS011;57172;52.034;5.090;2024-01-11T00:33:19;23.03;;;8.80;;
69894;SDS011;57172;52.034;5.090;2024-01-11T00:35:46;22.88;;;8.88;;
69894;SDS011;57172;52.034;5.090;2024-01-11T00:38:14;21.73;;;8.70;;
69894;SDS011;57172;52.034;5.090;2024-01-11T00:40:40;22.42;;;9.27;;
69894;SDS011;57172;52.034;5.090;2024-01-11T00:43:07;20.95;;;8.68;;
69894;SDS011;57172;52.034;5.090;2024-01-11T00:45:34;19.40;;;8.50;;
69894;SDS011;57172;52.034;5.090;2024-01-11T00:48:01;21.00;;;9.00;;
69894;SDS011;57172;52.034;5.090;2024-01-11T00:50:29;18.13;;;8.48;;
69894;SDS011;57172;52.034;5.090;2024-01-11T00:52:56;20.30;;;8.52;;
69894;SDS011;57172;52.034;5.090;2024-01-11T00:55:23;19.27;;;8.70;;
69894;SDS011;57172;52.034;5.090;2024-01-11T00:57:50;19.37;;;8.20;;
69894;SDS011;57172;52.034;5.090;2024-01-11T01:00:17;20.90;;;8.75;;
69894;SDS011;57172;52.034;5.090;2024-01-11T01:02:44;22.33;;;8.90;;
69894;SDS011;57172;52.034;5.090;2024-01-11T01:05:11;20.27;;;8.63;;
69894;SDS011;57172;52.034;5.090;2024-01-11T01:07:38;20.23;;;8.85;;
69894;SDS011;57172;52.034;5.090;2024-01-11T01:10:06;28.23;;;8.07;;
69894;SDS011;57172;52.034;5.090;2024-01-11T01:12:34;22.00;;;8.45;;
69894;SDS011;57172;52.034;5.090;2024-01-11T01:15:01;18.77;;;8.15;;
69894;SDS011;57172;52.034;5.090;2024-01-11T01:17:28;21.35;;;8.63;;
69894;SDS011;57172;52.034;5.090;2024-01-11T01:19:55;19.98;;;8.38;;
69894;SDS011;57172;52.034;5.090;2024-01-11T01:22:22;20.23;;;8.83;;
69894;SDS011;57172;52.034;5.090;2024-01-11T01:24:48;19.92;;;8.05;;
69894;SDS011;57172;52.034;5.090;2024-01-11T01:27:16;21.52;;;8.63;;
69894;SDS011;57172;52.034;5.090;2024-01-11T01:29:43;21.65;;;8.25;;
69894;SDS011;57172;52.034;5.090;2024-01-11T01:32:10;22.73;;;8.82;;
69894;SDS011;57172;52.034;5.090;2024-01-11T01:34:37;21.77;;;8.70;;
69894;SDS011;57172;52.034;5.090;2024-01-11T01:37:04;20.63;;;8.82;;
69894;SDS011;57172;52.034;5.090;2024-01-11T01:39:31;21.67;;;8.98;;
69894;SDS011;57172;52.034;5.090;2024-01-11T01:41:58;19.75;;;8.45;;
69894;SDS011;57172;52.034;5.090;2024-01-11T01:44:24;22.35;;;8.80;;
69894;SDS011;57172;52.034;5.090;2024-01-11T01:46:51;20.60;;;8.53;;
69894;SDS011;57172;52.034;5.090;2024-01-11T01:49:19;21.13;;;8.90;;
69894;SDS011;57172;52.034;5.090;2024-01-11T01:51:49;21.83;;;9.18;;
69894;SDS011;57172;52.034;5.090;2024-01-11T01:54:17;21.30;;;8.90;;
69894;SDS011;57172;52.034;5.090;2024-01-11T01:56:45;21.45;;;9.05;;
69894;SDS011;57172;52.034;5.090;2024-01-11T01:59:12;22.77;;;8.93;;
69894;SDS011;57172;52.034;5.090;2024-01-11T02:01:40;20.38;;;9.15;;
69894;SDS011;57172;52.034;5.090;2024-01-11T02:04:07;22.90;;;8.82;;
69894;SDS011;57172;52.034;5.090;2024-01-11T02:06:34;22.50;;;9.40;;
69894;SDS011;57172;52.034;5.090;2024-01-11T02:09:01;21.25;;;8.32;;
69894;SDS011;57172;52.034;5.090;2024-01-11T02:11:30;23.60;;;8.90;;
69894;SDS011;57172;52.034;5.090;2024-01-11T02:13:56;21.38;;;8.70;;
69894;SDS011;57172;52.034;5.090;2024-01-11T02:16:24;19.83;;;9.05;;
69894;SDS011;57172;52.034;5.090;2024-01-11T02:18:51;22.42;;;9.23;;
69894;SDS011;57172;52.034;5.090;2024-01-11T02:21:25;20.20;;;8.63;;
69894;SDS011;57172;52.034;5.090;2024-01-11T02:24:04;23.20;;;9.20;;
69894;SDS011;57172;52.034;5.090;2024-01-11T02:26:32;23.05;;;9.23;;
69894;SDS011;57172;52.034;5.090;2024-01-11T02:29:00;20.83;;;8.75;;
69894;SDS011;57172;52.034;5.090;2024-01-11T02:31:27;22.85;;;9.05;;
69894;SDS011;57172;52.034;5.090;2024-01-11T02:33:55;24.13;;;9.55;;
69894;SDS011;57172;52.034;5.090;2024-01-11T02:36:22;24.33;;;9.80;;
69894;SDS011;57172;52.034;5.090;2024-01-11T02:38:51;21.85;;;8.90;;
69894;SDS011;57172;52.034;5.090;2024-01-11T02:41:19;23.92;;;9.30;;
69894;SDS011;57172;52.034;5.090;2024-01-11T02:43:47;22.58;;;9.35;;
69894;SDS011;57172;52.034;5.090;2024-01-11T02:46:15;25.02;;;9.40;;
69894;SDS011;57172;52.034;5.090;2024-01-11T02:48:43;24.03;;;9.53;;
69894;SDS011;57172;52.034;5.090;2024-01-11T02:51:10;24.25;;;10.07;;
69894;SDS011;57172;52.034;5.090;2024-01-11T02:53:38;22.17;;;10.07;;
69894;SDS011;57172;52.034;5.090;2024-01-11T02:56:05;22.02;;;9.68;;
69894;SDS011;57172;52.034;5.090;2024-01-11T02:58:32;22.73;;;9.55;;
69894;SDS011;57172;52.034;5.090;2024-01-11T03:01:01;26.03;;;9.87;;
69894;SDS011;57172;52.034;5.090;2024-01-11T03:03:29;24.70;;;9.82;;
69894;SDS011;57172;52.034;5.090;2024-01-11T03:05:56;26.52;;;10.25;;
69894;SDS011;57172;52.034;5.090;2024-01-11T03:08:23;22.92;;;9.95;;
69894;SDS011;57172;52.034;5.090;2024-01-11T03:10:50;23.20;;;9.75;;
69894;SDS011;57172;52.034;5.090;2024-01-11T03:13:18;24.00;;;9.93;;
69894;SDS011;57172;52.034;5.090;2024-01-11T03:15:45;23.50;;;10.25;;
69894;SDS011;57172;52.034;5.090;2024-01-11T03:18:12;23.90;;;10.10;;
69894;SDS011;57172;52.034;5.090;2024-01-11T03:20:40;24.52;;;10.57;;
69894;SDS011;57172;52.034;5.090;2024-01-11T03:23:10;26.65;;;9.60;;
69894;SDS011;57172;52.034;5.090;2024-01-11T03:25:37;25.17;;;10.90;;
69894;SDS011;57172;52.034;5.090;2024-01-11T03:28:04;27.33;;;10.90;;
69894;SDS011;57172;52.034;5.090;2024-01-11T03:30:31;26.35;;;10.80;;
69894;SDS011;57172;52.034;5.090;2024-01-11T03:32:58;24.35;;;10.20;;
69894;SDS011;57172;52.034;5.090;2024-01-11T03:35:26;24.50;;;10.40;;
69894;SDS011;57172;52.034;5.090;2024-01-11T03:37:53;31.33;;;10.97;;
69894;SDS011;57172;52.034;5.090;2024-01-11T03:40:19;27.75;;;10.88;;
69894;SDS011;57172;52.034;5.090;2024-01-11T03:42:46;26.67;;;11.30;;
69894;SDS011;57172;52.034;5.090;2024-01-11T03:45:13;27.92;;;11.77;;
69894;SDS011;57172;52.034;5.090;2024-01-11T03:47:44;27.02;;;11.23;;
69894;SDS011;57172;52.034;5.090;2024-01-11T03:50:11;27.17;;;11.37;;
69894;SDS011;57172;52.034;5.090;2024-01-11T03:52:39;25.98;;;11.38;;
69894;SDS011;57172;52.034;5.090;2024-01-11T03:55:06;32.60;;;11.48;;
69894;SDS011;57172;52.034;5.090;2024-01-11T03:57:34;26.63;;;11.18;;
69894;SDS011;57172;52.034;5.090;2024-01-11T04:00:01;25.50;;;10.98;;
69894;SDS011;57172;52.034;5.090;2024-01-11T04:02:29;26.40;;;11.57;;
69894;SDS011;57172;52.034;5.090;2024-01-11T04:04:56;28.70;;;11.20;;
69894;SDS011;57172;52.034;5.090;2024-01-11T04:07:23;26.05;;;11.73;;
69894;SDS011;57172;52.034;5.090;2024-01-11T04:09:51;28.63;;;11.63;;
69894;SDS011;57172;52.034;5.090;2024-01-11T04:12:18;27.98;;;11.82;;
69894;SDS011;57172;52.034;5.090;2024-01-11T04:14:44;28.20;;;10.87;;
69894;SDS011;57172;52.034;5.090;2024-01-11T04:17:12;26.63;;;11.57;;
69894;SDS011;57172;52.034;5.090;2024-01-11T04:19:39;32.03;;;12.80;;
69894;SDS011;57172;52.034;5.090;2024-01-11T04:22:06;28.60;;;12.23;;
69894;SDS011;57172;52.034;5.090;2024-01-11T04:24:33;31.75;;;12.43;;
69894;SDS011;57172;52.034;5.090;2024-01-11T04:27:00;34.60;;;12.93;;
69894;SDS011;57172;52.034;5.090;2024-01-11T04:29:26;30.33;;;12.43;;
69894;SDS011;57172;52.034;5.090;2024-01-11T04:31:53;33.05;;;13.23;;
69894;SDS011;57172;52.034;5.090;2024-01-11T04:34:20;35.97;;;13.68;;
69894;SDS011;57172;52.034;5.090;2024-01-11T04:36:47;32.58;;;13.18;;
69894;SDS011;57172;52.034;5.090;2024-01-11T04:39:14;32.50;;;13.37;;
69894;SDS011;57172;52.034;5.090;2024-01-11T04:41:41;34.70;;;13.55;;
69894;SDS011;57172;52.034;5.090;2024-01-11T04:44:08;32.45;;;14.05;;
69894;SDS011;57172;52.034;5.090;2024-01-11T04:46:36;35.42;;;13.98;;
69894;SDS011;57172;52.034;5.090;2024-01-11T04:49:03;33.58;;;14.15;;
69894;SDS011;57172;52.034;5.090;2024-01-11T04:51:30;34.77;;;14.13;;
69894;SDS011;57172;52.034;5.090;2024-01-11T04:53:57;37.55;;;15.90;;
69894;SDS011;57172;52.034;5.090;2024-01-11T04:56:23;35.30;;;14.18;;
69894;SDS011;57172;52.034;5.090;2024-01-11T04:58:50;39.70;;;15.20;;
69894;SDS011;57172;52.034;5.090;2024-01-11T05:01:17;36.10;;;14.45;;
69894;SDS011;57172;52.034;5.090;2024-01-11T05:03:45;34.53;;;14.50;;
69894;SDS011;57172;52.034;5.090;2024-01-11T05:06:20;39.10;;;15.40;;
69894;SDS011;57172;52.034;5.090;2024-01-11T05:08:51;39.08;;;15.68;;
69894;SDS011;57172;52.034;5.090;2024-01-11T05:11:19;37.20;;;15.40;;
69894;SDS011;57172;52.034;5.090;2024-01-11T05:13:48;39.40;;;16.38;;
69894;SDS011;57172;52.034;5.090;2024-01-11T05:16:37;37.37;;;15.60;;
69894;SDS011;57172;52.034;5.090;2024-01-11T05:19:03;36.58;;;15.27;;
69894;SDS011;57172;52.034;5.090;2024-01-11T05:21:30;41.53;;;16.13;;
69894;SDS011;57172;52.034;5.090;2024-01-11T05:23:56;37.08;;;14.63;;
69894;SDS011;57172;52.034;5.090;2024-01-11T05:26:23;40.33;;;15.82;;
69894;SDS011;57172;52.034;5.090;2024-01-11T05:28:50;42.93;;;16.70;;
69894;SDS011;57172;52.034;5.090;2024-01-11T05:31:17;40.40;;;15.68;;
69894;SDS011;57172;52.034;5.090;2024-01-11T05:33:45;38.38;;;15.88;;
69894;SDS011;57172;52.034;5.090;2024-01-11T05:36:13;36.72;;;15.52;;
69894;SDS011;57172;52.034;5.090;2024-01-11T05:38:40;39.15;;;16.10;;
69894;SDS011;57172;52.034;5.090;2024-01-11T05:41:07;37.40;;;15.70;;
69894;SDS011;57172;52.034;5.090;2024-01-11T05:43:36;37.90;;;15.95;;
69894;SDS011;57172;52.034;5.090;2024-01-11T05:46:05;39.53;;;15.75;;
69894;SDS011;57172;52.034;5.090;2024-01-11T05:48:33;40.80;;;15.63;;
69894;SDS011;57172;52.034;5.090;2024-01-11T05:51:00;41.40;;;15.80;;
69894;SDS011;57172;52.034;5.090;2024-01-11T05:53:27;37.60;;;15.53;;
69894;SDS011;57172;52.034;5.090;2024-01-11T05:55:54;41.60;;;16.13;;
69894;SDS011;57172;52.034;5.090;2024-01-11T05:58:21;43.45;;;16.23;;
69894;SDS011;57172;52.034;5.090;2024-01-11T06:00:48;39.35;;;16.23;;
69894;SDS011;57172;52.034;5.090;2024-01-11T06:03:15;37.20;;;15.45;;
69894;SDS011;57172;52.034;5.090;2024-01-11T06:05:42;40.50;;;15.63;;
69894;SDS011;57172;52.034;5.090;2024-01-11T06:08:09;39.38;;;15.52;;
69894;SDS011;57172;52.034;5.090;2024-01-11T06:10:36;39.05;;;15.60;;
69894;SDS011;57172;52.034;5.090;2024-01-11T06:13:03;38.38;;;15.85;;
69894;SDS011;57172;52.034;5.090;2024-01-11T06:15:30;40.90;;;16.25;;
69894;SDS011;57172;52.034;5.090;2024-01-11T06:17:58;38.17;;;16.33;;
69894;SDS011;57172;52.034;5.090;2024-01-11T06:20:25;37.63;;;16.35;;
69894;SDS011;57172;52.034;5.090;2024-01-11T06:22:52;41.15;;;16.15;;
69894;SDS011;57172;52.034;5.090;2024-01-11T06:25:19;38.10;;;16.02;;
69894;SDS011;57172;52.034;5.090;2024-01-11T06:27:46;40.08;;;15.93;;
69894;SDS011;57172;52.034;5.090;2024-01-11T06:30:13;38.97;;;16.00;;
69894;SDS011;57172;52.034;5.090;2024-01-11T06:32:40;43.00;;;15.82;;
69894;SDS011;57172;52.034;5.090;2024-01-11T06:35:08;36.55;;;15.95;;
69894;SDS011;57172;52.034;5.090;2024-01-11T06:37:36;39.00;;;16.40;;
69894;SDS011;57172;52.034;5.090;2024-01-11T06:40:02;39.30;;;16.23;;
69894;SDS011;57172;52.034;5.090;2024-01-11T06:42:30;40.73;;;15.70;;
69894;SDS011;57172;52.034;5.090;2024-01-11T06:44:57;42.47;;;16.33;;
69894;SDS011;57172;52.034;5.090;2024-01-11T06:47:24;38.28;;;15.73;;
69894;SDS011;57172;52.034;5.090;2024-01-11T06:49:51;40.85;;;16.33;;
69894;SDS011;57172;52.034;5.090;2024-01-11T06:52:19;43.92;;;16.98;;
69894;SDS011;57172;52.034;5.090;2024-01-11T06:54:46;50.97;;;19.30;;
69894;SDS011;57172;52.034;5.090;2024-01-11T06:57:13;46.40;;;17.30;;
69894;SDS011;57172;52.034;5.090;2024-01-11T06:59:40;41.08;;;17.77;;
69894;SDS011;57172;52.034;5.090;2024-01-11T07:02:07;40.97;;;16.08;;
69894;SDS011;57172;52.034;5.090;2024-01-11T07:04:34;42.45;;;16.42;;
69894;SDS011;57172;52.034;5.090;2024-01-11T07:07:01;46.30;;;17.17;;
69894;SDS011;57172;52.034;5.090;2024-01-11T07:09:31;42.67;;;17.33;;
69894;SDS011;57172;52.034;5.090;2024-01-11T07:11:58;47.65;;;17.77;;
69894;SDS011;57172;52.034;5.090;2024-01-11T07:14:25;45.90;;;18.15;;
69894;SDS011;57172;52.034;5.090;2024-01-11T07:16:52;44.22;;;17.67;;
69894;SDS011;57172;52.034;5.090;2024-01-11T07:19:18;42.13;;;17.63;;
69894;SDS011;57172;52.034;5.090;2024-01-11T07:21:45;44.67;;;17.13;;
69894;SDS011;57172;52.034;5.090;2024-01-11T07:24:12;45.45;;;17.95;;
69894;SDS011;57172;52.034;5.090;2024-01-11T07:26:39;45.55;;;17.90;;
69894;SDS011;57172;52.034;5.090;2024-01-11T07:29:06;45.83;;;18.25;;
69894;SDS011;57172;52.034;5.090;2024-01-11T07:31:33;42.50;;;16.77;;
69894;SDS011;57172;52.034;5.090;2024-01-11T07:34:00;43.28;;;17.35;;
69894;SDS011;57172;52.034;5.090;2024-01-11T07:36:28;42.97;;;17.38;;
69894;SDS011;57172;52.034;5.090;2024-01-11T07:38:55;43.42;;;18.30;;
69894;SDS011;57172;52.034;5.090;2024-01-11T07:41:30;44.00;;;17.80;;
69894;SDS011;57172;52.034;5.090;2024-01-11T07:43:57;43.30;;;17.30;;
69894;SDS011;57172;52.034;5.090;2024-01-11T07:46:26;50.38;;;20.10;;
69894;SDS011;57172;52.034;5.090;2024-01-11T07:49:05;46.22;;;19.63;;
69894;SDS011;57172;52.034;5.090;2024-01-11T07:51:33;47.42;;;19.85;;
69894;SDS011;57172;52.034;5.090;2024-01-11T07:54:03;47.53;;;19.83;;
69894;SDS011;57172;52.034;5.090;2024-01-11T07:56:31;42.63;;;17.83;;
69894;SDS011;57172;52.034;5.090;2024-01-11T07:58:58;51.72;;;19.83;;
69894;SDS011;57172;52.034;5.090;2024-01-11T08:01:25;47.75;;;20.00;;
69894;SDS011;57172;52.034;5.090;2024-01-11T08:03:52;47.05;;;20.20;;
69894;SDS011;57172;52.034;5.090;2024-01-11T08:06:20;47.88;;;19.45;;
69894;SDS011;57172;52.034;5.090;2024-01-11T08:08:46;46.87;;;18.87;;
69894;SDS011;57172;52.034;5.090;2024-01-11T08:11:19;51.22;;;20.60;;
69894;SDS011;57172;52.034;5.090;2024-01-11T08:13:46;48.90;;;21.00;;
69894;SDS011;57172;52.034;5.090;2024-01-11T08:16:16;48.97;;;20.73;;
69894;SDS011;57172;52.034;5.090;2024-01-11T08:18:48;49.13;;;20.20;;
69894;SDS011;57172;52.034;5.090;2024-01-11T08:21:16;45.40;;;19.07;;
69894;SDS011;57172;52.034;5.090;2024-01-11T08:23:43;49.75;;;19.20;;
69894;SDS011;57172;52.034;5.090;2024-01-11T08:26:12;46.95;;;19.27;;
69894;SDS011;57172;52.034;5.090;2024-01-11T08:28:45;46.33;;;18.52;;
69894;SDS011;57172;52.034;5.090;2024-01-11T08:31:12;43.90;;;18.33;;
69894;SDS011;57172;52.034;5.090;2024-01-11T08:33:39;43.87;;;18.27;;
69894;SDS011;57172;52.034;5.090;2024-01-11T08:36:06;42.53;;;17.92;;
69894;SDS011;57172;52.034;5.090;2024-01-11T08:38:34;48.42;;;18.05;;
69894;SDS011;57172;52.034;5.090;2024-01-11T08:41:02;55.42;;;19.23;;
69894;SDS011;57172;52.034;5.090;2024-01-11T08:43:30;45.00;;;18.52;;
69894;SDS011;57172;52.034;5.090;2024-01-11T08:45:56;45.13;;;19.70;;
69894;SDS011;57172;52.034;5.090;2024-01-11T08:48:23;46.58;;;19.08;;
69894;SDS011;57172;52.034;5.090;2024-01-11T08:50:51;49.65;;;20.33;;
69894;SDS011;57172;52.034;5.090;2024-01-11T08:53:18;44.60;;;19.10;;
69894;SDS011;57172;52.034;5.090;2024-01-11T08:55:44;46.75;;;19.73;;
69894;SDS011;57172;52.034;5.090;2024-01-11T08:58:13;46.57;;;18.97;;
69894;SDS011;57172;52.034;5.090;2024-01-11T09:00:40;41.88;;;18.88;;
69894;SDS011;57172;52.034;5.090;2024-01-11T09:03:07;47.65;;;19.88;;
69894;SDS011;57172;52.034;5.090;2024-01-11T09:05:34;42.45;;;18.33;;
69894;SDS011;57172;52.034;5.090;2024-01-11T09:08:01;44.58;;;19.02;;
69894;SDS011;57172;52.034;5.090;2024-01-11T09:10:28;39.00;;;17.50;;
69894;SDS011;57172;52.034;5.090;2024-01-11T09:12:55;42.63;;;18.77;;
69894;SDS011;57172;52.034;5.090;2024-01-11T09:15:22;42.45;;;17.90;;
69894;SDS011;57172;52.034;5.090;2024-01-11T09:17:49;42.10;;;18.60;;
69894;SDS011;57172;52.034;5.090;2024-01-11T09:20:17;40.22;;;16.83;;
69894;SDS011;57172;52.034;5.090;2024-01-11T09:22:45;40.07;;;17.07;;
69894;SDS011;57172;52.034;5.090;2024-01-11T09:25:12;39.28;;;17.38;;
69894;SDS011;57172;52.034;5.090;2024-01-11T09:27:39;43.55;;;16.98;;
69894;SDS011;57172;52.034;5.090;2024-01-11T09:30:06;38.47;;;16.95;;
69894;SDS011;57172;52.034;5.090;2024-01-11T09:32:33;38.58;;;17.42;;
69894;SDS011;57172;52.034;5.090;2024-01-11T09:35:01;37.50;;;16.60;;
69894;SDS011;57172;52.034;5.090;2024-01-11T09:37:31;36.67;;;16.35;;
69894;SDS011;57172;52.034;5.090;2024-01-11T09:39:58;36.58;;;16.77;;
69894;SDS011;57172;52.034;5.090;2024-01-11T09:42:27;35.72;;;16.63;;
69894;SDS011;57172;52.034;5.090;2024-01-11T09:44:54;35.97;;;17.40;;
69894;SDS011;57172;52.034;5.090;2024-01-11T09:47:23;36.50;;;17.30;;
69894;SDS011;57172;52.034;5.090;2024-01-11T09:49:51;36.83;;;17.13;;
69894;SDS011;57172;52.034;5.090;2024-01-11T09:52:20;36.50;;;17.50;;
69894;SDS011;57172;52.034;5.090;2024-01-11T09:54:49;34.92;;;17.33;;
69894;SDS011;57172;52.034;5.090;2024-01-11T09:57:17;36.60;;;17.05;;
69894;SDS011;57172;52.034;5.090;2024-01-11T09:59:50;35.00;;;16.80;;
69894;SDS011;57172;52.034;5.090;2024-01-11T10:02:21;34.03;;;16.50;;
69894;SDS011;57172;52.034;5.090;2024-01-11T10:04:49;33.97;;;17.08;;
69894;SDS011;57172;52.034;5.090;2024-01-11T10:07:19;34.70;;;16.52;;
69894;SDS011;57172;52.034;5.090;2024-01-11T10:09:49;38.33;;;17.55;;
69894;SDS011;57172;52.034;5.090;2024-01-11T10:12:22;35.80;;;17.10;;
69894;SDS011;57172;52.034;5.090;2024-01-11T10:14:51;33.40;;;15.85;;
69894;SDS011;57172;52.034;5.090;2024-01-11T10:17:19;35.55;;;16.25;;
69894;SDS011;57172;52.034;5.090;2024-01-11T10:19:52;33.10;;;14.60;;
69894;SDS011;57172;52.034;5.090;2024-01-11T10:22:21;35.17;;;15.07;;
69894;SDS011;57172;52.034;5.090;2024-01-11T10:24:59;35.33;;;15.00;;
69894;SDS011;57172;52.034;5.090;2024-01-11T10:27:39;32.92;;;13.98;;
69894;SDS011;57172;52.034;5.090;2024-01-11T10:30:14;34.42;;;14.25;;
69894;SDS011;57172;52.034;5.090;2024-01-11T10:32:46;32.80;;;13.85;;
69894;SDS011;57172;52.034;5.090;2024-01-11T10:35:14;36.33;;;14.68;;
69894;SDS011;57172;52.034;5.090;2024-01-11T10:37:44;32.40;;;13.77;;
69894;SDS011;57172;52.034;5.090;2024-01-11T10:40:11;33.13;;;13.35;;
69894;SDS011;57172;52.034;5.090;2024-01-11T10:42:40;33.88;;;14.05;;
69894;SDS011;57172;52.034;5.090;2024-01-11T10:45:11;34.88;;;13.55;;
69894;SDS011;57172;52.034;5.090;2024-01-11T10:50:20;32.87;;;13.97;;
69894;SDS011;57172;52.034;5.090;2024-01-11T10:52:53;35.58;;;14.32;;
69894;SDS011;57172;52.034;5.090;2024-01-11T10:55:31;33.13;;;13.63;;
69894;SDS011;57172;52.034;5.090;2024-01-11T10:58:00;33.40;;;12.95;;
69894;SDS011;57172;52.034;5.090;2024-01-11T11:00:28;32.90;;;13.75;;
69894;SDS011;57172;52.034;5.090;2024-01-11T11:02:56;30.63;;;13.37;;
69894;SDS011;57172;52.034;5.090;2024-01-11T11:05:27;31.52;;;12.48;;
69894;SDS011;57172;52.034;5.090;2024-01-11T11:07:56;32.13;;;12.15;;
69894;SDS011;57172;52.034;5.090;2024-01-11T11:10:27;28.52;;;12.18;;
69894;SDS011;57172;52.034;5.090;2024-01-11T11:12:56;29.45;;;12.35;;
69894;SDS011;57172;52.034;5.090;2024-01-11T11:15:29;29.93;;;11.73;;
69894;SDS011;57172;52.034;5.090;2024-01-11T11:17:56;25.52;;;11.30;;
69894;SDS011;57172;52.034;5.090;2024-01-11T11:20:24;28.20;;;11.55;;
69894;SDS011;57172;52.034;5.090;2024-01-11T11:23:03;27.33;;;11.30;;
69894;SDS011;57172;52.034;5.090;2024-01-11T11:25:32;26.90;;;11.52;;
69894;SDS011;57172;52.034;5.090;2024-01-11T11:27:59;32.63;;;13.60;;
69894;SDS011;57172;52.034;5.090;2024-01-11T11:30:30;29.17;;;11.43;;
69894;SDS011;57172;52.034;5.090;2024-01-11T11:32:57;29.67;;;11.93;;
69894;SDS011;57172;52.034;5.090;2024-01-11T11:35:33;27.63;;;10.60;;
69894;SDS011;57172;52.034;5.090;2024-01-11T11:38:00;27.17;;;11.30;;
69894;SDS011;57172;52.034;5.090;2024-01-11T11:40:37;29.23;;;12.50;;
69894;SDS011;57172;52.034;5.090;2024-01-11T11:43:10;27.10;;;11.90;;
69894;SDS011;57172;52.034;5.090;2024-01-11T11:45:37;27.50;;;11.90;;
69894;SDS011;57172;52.034;5.090;2024-01-11T11:51:13;29.40;;;11.35;;
69894;SDS011;57172;52.034;5.090;2024-01-11T11:53:48;24.90;;;10.77;;
69894;SDS011;57172;52.034;5.090;2024-01-11T11:56:18;24.50;;;10.90;;
69894;SDS011;57172;52.034;5.090;2024-01-11T11:58:49;24.92;;;10.60;;
69894;SDS011;57172;52.034;5.090;2024-01-11T12:01:16;24.23;;;10.63;;
69894;SDS011;57172;52.034;5.090;2024-01-11T12:03:44;25.65;;;10.60;;
69894;SDS011;57172;52.034;5.090;2024-01-11T12:06:19;23.43;;;10.43;;
69894;SDS011;57172;52.034;5.090;2024-01-11T12:08:47;25.88;;;11.80;;
69894;SDS011;57172;52.034;5.090;2024-01-11T12:11:17;29.25;;;11.63;;
69894;SDS011;57172;52.034;5.090;2024-01-11T12:13:49;26.77;;;11.98;;
69894;SDS011;57172;52.034;5.090;2024-01-11T12:16:16;25.70;;;11.23;;
69894;SDS011;57172;52.034;5.090;2024-01-11T12:18:43;24.57;;;11.20;;
69894;SDS011;57172;52.034;5.090;2024-01-11T12:21:10;28.35;;;11.30;;
69894;SDS011;57172;52.034;5.090;2024-01-11T12:23:38;25.42;;;11.05;;
69894;SDS011;57172;52.034;5.090;2024-01-11T12:26:06;20.95;;;10.27;;
69894;SDS011;57172;52.034;5.090;2024-01-11T12:28:41;21.30;;;9.85;;
69894;SDS011;57172;52.034;5.090;2024-01-11T12:31:11;23.97;;;10.67;;
69894;SDS011;57172;52.034;5.090;2024-01-11T12:33:39;22.58;;;9.88;;
69894;SDS011;57172;52.034;5.090;2024-01-11T12:36:07;22.13;;;10.00;;
69894;SDS011;57172;52.034;5.090;2024-01-11T12:38:35;22.13;;;10.05;;
69894;SDS011;57172;52.034;5.090;2024-01-11T12:41:03;22.77;;;10.20;;
69894;SDS011;57172;52.034;5.090;2024-01-11T12:43:31;21.47;;;9.60;;
69894;SDS011;57172;52.034;5.090;2024-01-11T12:46:00;19.90;;;9.40;;
69894;SDS011;57172;52.034;5.090;2024-01-11T12:48:27;20.30;;;9.68;;
69894;SDS011;57172;52.034;5.090;2024-01-11T12:50:54;22.48;;;9.98;;
69894;SDS011;57172;52.034;5.090;2024-01-11T12:53:39;21.23;;;9.85;;
69894;SDS011;57172;52.034;5.090;2024-01-11T12:56:07;20.47;;;10.00;;
69894;SDS011;57172;52.034;5.090;2024-01-11T12:58:37;19.58;;;9.50;;
69894;SDS011;57172;52.034;5.090;2024-01-11T13:01:05;20.23;;;9.35;;
69894;SDS011;57172;52.034;5.090;2024-01-11T13:03:34;20.58;;;9.80;;
69894;SDS011;57172;52.034;5.090;2024-01-11T13:06:05;21.73;;;9.30;;
69894;SDS011;57172;52.034;5.090;2024-01-11T13:08:32;17.77;;;8.70;;
69894;SDS011;57172;52.034;5.090;2024-01-11T13:11:03;18.25;;;8.43;;
69894;SDS011;57172;52.034;5.090;2024-01-11T13:13:36;19.42;;;8.52;;
69894;SDS011;57172;52.034;5.090;2024-01-11T13:16:03;21.80;;;8.23;;
69894;SDS011;57172;52.034;5.090;2024-01-11T13:18:32;18.63;;;8.70;;
69894;SDS011;57172;52.034;5.090;2024-01-11T13:20:59;19.83;;;9.00;;
69894;SDS011;57172;52.034;5.090;2024-01-11T13:23:26;17.23;;;8.45;;
69894;SDS011;57172;52.034;5.090;2024-01-11T13:25:53;20.25;;;8.60;;
69894;SDS011;57172;52.034;5.090;2024-01-11T13:28:20;21.40;;;8.82;;
69894;SDS011;57172;52.034;5.090;2024-01-11T13:30:48;19.17;;;8.85;;
69894;SDS011;57172;52.034;5.090;2024-01-11T13:33:15;19.53;;;9.10;;
69894;SDS011;57172;52.034;5.090;2024-01-11T13:35:45;19.83;;;9.15;;
69894;SDS011;57172;52.034;5.090;2024-01-11T13:38:12;18.42;;;8.55;;
69894;SDS011;57172;52.034;5.090;2024-01-11T13:40:39;18.00;;;7.97;;
69894;SDS011;57172;52.034;5.090;2024-01-11T13:43:07;17.38;;;8.18;;
69894;SDS011;57172;52.034;5.090;2024-01-11T13:45:34;20.80;;;8.90;;
69894;SDS011;57172;52.034;5.090;2024-01-11T13:48:05;22.33;;;8.38;;
69894;SDS011;57172;52.034;5.090;2024-01-11T13:50:32;21.75;;;9.75;;
69894;SDS011;57172;52.034;5.090;2024-01-11T13:53:00;18.00;;;9.27;;
69894;SDS011;57172;52.034;5.090;2024-01-11T13:55:30;18.42;;;9.45;;
69894;SDS011;57172;52.034;5.090;2024-01-11T13:58:05;21.57;;;10.43;;
69894;SDS011;57172;52.034;5.090;2024-01-11T14:00:32;18.83;;;9.30;;
69894;SDS011;57172;52.034;5.090;2024-01-11T14:03:00;27.27;;;9.50;;
69894;SDS011;57172;52.034;5.090;2024-01-11T14:05:27;19.65;;;9.30;;
69894;SDS011;57172;52.034;5.090;2024-01-11T14:07:55;23.45;;;10.38;;
69894;SDS011;57172;52.034;5.090;2024-01-11T14:10:24;21.50;;;9.77;;
69894;SDS011;57172;52.034;5.090;2024-01-11T14:12:53;20.65;;;9.48;;
69894;SDS011;57172;52.034;5.090;2024-01-11T14:15:20;19.95;;;9.68;;
69894;SDS011;57172;52.034;5.090;2024-01-11T14:17:48;19.58;;;9.15;;
69894;SDS011;57172;52.034;5.090;2024-01-11T14:20:15;21.50;;;9.50;;
69894;SDS011;57172;52.034;5.090;2024-01-11T14:22:44;20.97;;;9.57;;
69894;SDS011;57172;52.034;5.090;2024-01-11T14:25:21;22.92;;;10.18;;
69894;SDS011;57172;52.034;5.090;2024-01-11T14:27:49;24.98;;;10.68;;
69894;SDS011;57172;52.034;5.090;2024-01-11T14:30:16;22.50;;;9.68;;
69894;SDS011;57172;52.034;5.090;2024-01-11T14:32:43;21.92;;;9.65;;
69894;SDS011;57172;52.034;5.090;2024-01-11T14:35:12;28.00;;;10.53;;
69894;SDS011;57172;52.034;5.090;2024-01-11T14:37:40;29.95;;;12.25;;